ENFL/FRO METAR and TAF weather

Enter ICAO airport designator
Station Type Date Time Source
ENFL METAR 2018/07/21 22:20 UTC NOAA

ENFL 212220Z AUTO 27009KT 9999NDV BKN011/// OVC016/// 15/13 Q1010


Station Type Date Time Source
ENFL Decoded METAR 2018/07/21 22:20 UTC NOAA

Floro, Norway (ENFL) 61-35N 005-02E 9M
Jul 21, 2018 - 06:20 PM EDT / 2018.07.21 2220 UTC
Wind: from the W (270 degrees) at 10 MPH (9 KT):0
Sky conditions: overcast
Temperature: 59 F (15 C)
Dew Point: 55 F (13 C)
Relative Humidity: 87%
Pressure (altimeter): 29.83 in. Hg (1010 hPa)
ob: ENFL 212220Z AUTO 27009KT 9999NDV BKN011/// OVC016/// 15/13 Q1010
cycle: 22

Station Type Date Time Source
ENFL TAF 2010/02/05 07:50 UTC NOAA

METAR ENFL 050750Z 16019KT 140V200 9999 FEW015 SCT030 BKN055 03/M03 Q1011


Example: see airport list